sensor_id;sensor_type;location;lat;lon;timestamp;P1;durP1;ratioP1;P2;durP2;ratioP2
73571;SDS011;61854;48.510;-2.770;2023-02-28T00:00:32;16.45;;;2.20;;
73571;SDS011;61854;48.510;-2.770;2023-02-28T00:02:59;13.80;;;2.17;;
73571;SDS011;61854;48.510;-2.770;2023-02-28T00:05:26;11.20;;;2.30;;
73571;SDS011;61854;48.510;-2.770;2023-02-28T00:07:52;6.75;;;2.13;;
73571;SDS011;61854;48.510;-2.770;2023-02-28T00:10:20;10.50;;;2.35;;
73571;SDS011;61854;48.510;-2.770;2023-02-28T00:12:49;13.05;;;2.50;;
73571;SDS011;61854;48.510;-2.770;2023-02-28T00:15:15;13.43;;;2.20;;
73571;SDS011;61854;48.510;-2.770;2023-02-28T00:17:42;8.85;;;2.30;;
73571;SDS011;61854;48.510;-2.770;2023-02-28T00:20:08;17.52;;;2.90;;
73571;SDS011;61854;48.510;-2.770;2023-02-28T00:22:38;14.73;;;2.67;;
73571;SDS011;61854;48.510;-2.770;2023-02-28T00:25:05;6.15;;;1.52;;
73571;SDS011;61854;48.510;-2.770;2023-02-28T00:27:33;12.25;;;2.33;;
73571;SDS011;61854;48.510;-2.770;2023-02-28T00:30:02;9.55;;;2.50;;
73571;SDS011;61854;48.510;-2.770;2023-02-28T00:32:29;10.38;;;1.95;;
73571;SDS011;61854;48.510;-2.770;2023-02-28T00:34:55;9.15;;;1.88;;
73571;SDS011;61854;48.510;-2.770;2023-02-28T00:37:21;12.15;;;2.17;;
73571;SDS011;61854;48.510;-2.770;2023-02-28T00:39:46;12.52;;;2.35;;
73571;SDS011;61854;48.510;-2.770;2023-02-28T00:42:12;11.05;;;2.65;;
73571;SDS011;61854;48.510;-2.770;2023-02-28T00:44:38;13.30;;;2.75;;
73571;SDS011;61854;48.510;-2.770;2023-02-28T00:47:03;7.93;;;1.83;;
73571;SDS011;61854;48.510;-2.770;2023-02-28T00:49:29;14.52;;;2.88;;
73571;SDS011;61854;48.510;-2.770;2023-02-28T00:51:55;12.52;;;2.40;;
73571;SDS011;61854;48.510;-2.770;2023-02-28T00:54:22;11.93;;;2.80;;
73571;SDS011;61854;48.510;-2.770;2023-02-28T00:56:48;9.95;;;2.80;;
73571;SDS011;61854;48.510;-2.770;2023-02-28T00:59:15;16.02;;;3.85;;
73571;SDS011;61854;48.510;-2.770;2023-02-28T01:01:42;14.68;;;3.30;;
73571;SDS011;61854;48.510;-2.770;2023-02-28T01:04:08;12.43;;;3.17;;
73571;SDS011;61854;48.510;-2.770;2023-02-28T01:06:34;12.02;;;3.47;;
73571;SDS011;61854;48.510;-2.770;2023-02-28T01:09:00;17.48;;;3.88;;
73571;SDS011;61854;48.510;-2.770;2023-02-28T01:11:30;15.32;;;3.45;;
73571;SDS011;61854;48.510;-2.770;2023-02-28T01:13:56;12.77;;;3.40;;
73571;SDS011;61854;48.510;-2.770;2023-02-28T01:16:22;11.57;;;3.35;;
73571;SDS011;61854;48.510;-2.770;2023-02-28T01:18:48;10.80;;;3.47;;
73571;SDS011;61854;48.510;-2.770;2023-02-28T01:21:15;13.63;;;3.30;;
73571;SDS011;61854;48.510;-2.770;2023-02-28T01:23:43;12.98;;;3.60;;
73571;SDS011;61854;48.510;-2.770;2023-02-28T01:26:10;11.32;;;3.92;;
73571;SDS011;61854;48.510;-2.770;2023-02-28T01:28:38;11.70;;;4.55;;
73571;SDS011;61854;48.510;-2.770;2023-02-28T01:31:05;14.40;;;4.00;;
73571;SDS011;61854;48.510;-2.770;2023-02-28T01:33:31;9.30;;;4.30;;
73571;SDS011;61854;48.510;-2.770;2023-02-28T01:36:01;16.67;;;4.25;;
73571;SDS011;61854;48.510;-2.770;2023-02-28T01:38:28;10.27;;;4.18;;
73571;SDS011;61854;48.510;-2.770;2023-02-28T01:40:54;11.00;;;4.20;;
73571;SDS011;61854;48.510;-2.770;2023-02-28T01:43:24;15.88;;;4.75;;
73571;SDS011;61854;48.510;-2.770;2023-02-28T01:45:52;10.10;;;4.18;;
73571;SDS011;61854;48.510;-2.770;2023-02-28T01:48:19;15.73;;;4.80;;
73571;SDS011;61854;48.510;-2.770;2023-02-28T01:50:51;10.60;;;4.65;;
73571;SDS011;61854;48.510;-2.770;2023-02-28T01:53:19;11.43;;;4.60;;
73571;SDS011;61854;48.510;-2.770;2023-02-28T01:55:49;10.45;;;5.10;;
73571;SDS011;61854;48.510;-2.770;2023-02-28T01:58:18;12.45;;;5.20;;
73571;SDS011;61854;48.510;-2.770;2023-02-28T02:00:44;14.27;;;4.80;;
73571;SDS011;61854;48.510;-2.770;2023-02-28T02:03:13;13.68;;;5.30;;
73571;SDS011;61854;48.510;-2.770;2023-02-28T02:05:40;10.05;;;4.90;;
73571;SDS011;61854;48.510;-2.770;2023-02-28T02:08:08;9.77;;;4.80;;
73571;SDS011;61854;48.510;-2.770;2023-02-28T02:10:41;16.08;;;6.20;;
73571;SDS011;61854;48.510;-2.770;2023-02-28T02:21:40;12.40;;;5.22;;
73571;SDS011;61854;48.510;-2.770;2023-02-28T02:27:15;12.02;;;5.88;;
73571;SDS011;61854;48.510;-2.770;2023-02-28T02:29:54;16.95;;;5.93;;
73571;SDS011;61854;48.510;-2.770;2023-02-28T02:33:04;14.05;;;6.30;;
73571;SDS011;61854;48.510;-2.770;2023-02-28T02:35:41;11.38;;;5.40;;
73571;SDS011;61854;48.510;-2.770;2023-02-28T02:43:30;12.70;;;6.20;;
73571;SDS011;61854;48.510;-2.770;2023-02-28T02:46:15;11.65;;;6.03;;
73571;SDS011;61854;48.510;-2.770;2023-02-28T02:48:45;15.93;;;5.72;;
73571;SDS011;61854;48.510;-2.770;2023-02-28T02:51:14;13.00;;;5.90;;
73571;SDS011;61854;48.510;-2.770;2023-02-28T02:53:49;14.63;;;5.53;;
73571;SDS011;61854;48.510;-2.770;2023-02-28T02:56:19;12.88;;;6.05;;
73571;SDS011;61854;48.510;-2.770;2023-02-28T02:58:49;12.23;;;5.57;;
73571;SDS011;61854;48.510;-2.770;2023-02-28T03:01:21;11.95;;;6.00;;
73571;SDS011;61854;48.510;-2.770;2023-02-28T03:06:50;11.32;;;5.30;;
73571;SDS011;61854;48.510;-2.770;2023-02-28T03:09:23;12.02;;;5.22;;
73571;SDS011;61854;48.510;-2.770;2023-02-28T03:11:50;13.27;;;5.53;;
73571;SDS011;61854;48.510;-2.770;2023-02-28T03:16:53;11.95;;;5.38;;
73571;SDS011;61854;48.510;-2.770;2023-02-28T03:19:47;10.45;;;5.43;;
73571;SDS011;61854;48.510;-2.770;2023-02-28T03:27:54;10.82;;;6.20;;
73571;SDS011;61854;48.510;-2.770;2023-02-28T03:30:45;13.63;;;5.80;;
73571;SDS011;61854;48.510;-2.770;2023-02-28T03:34:01;10.45;;;5.82;;
73571;SDS011;61854;48.510;-2.770;2023-02-28T03:36:15;9.93;;;5.97;;
73571;SDS011;61854;48.510;-2.770;2023-02-28T03:38:46;11.95;;;6.10;;
73571;SDS011;61854;48.510;-2.770;2023-02-28T03:41:31;9.95;;;5.72;;
73571;SDS011;61854;48.510;-2.770;2023-02-28T03:44:11;12.70;;;5.82;;
73571;SDS011;61854;48.510;-2.770;2023-02-28T03:46:42;12.43;;;6.15;;
73571;SDS011;61854;48.510;-2.770;2023-02-28T03:49:20;16.13;;;6.60;;
73571;SDS011;61854;48.510;-2.770;2023-02-28T03:51:51;12.05;;;6.70;;
73571;SDS011;61854;48.510;-2.770;2023-02-28T03:54:22;11.45;;;5.55;;
73571;SDS011;61854;48.510;-2.770;2023-02-28T03:57:03;11.00;;;6.18;;
73571;SDS011;61854;48.510;-2.770;2023-02-28T03:59:42;14.18;;;6.35;;
73571;SDS011;61854;48.510;-2.770;2023-02-28T04:02:12;10.20;;;5.65;;
73571;SDS011;61854;48.510;-2.770;2023-02-28T04:04:38;10.70;;;6.22;;
73571;SDS011;61854;48.510;-2.770;2023-02-28T04:07:07;8.82;;;6.20;;
73571;SDS011;61854;48.510;-2.770;2023-02-28T04:09:33;10.27;;;6.28;;
73571;SDS011;61854;48.510;-2.770;2023-02-28T04:12:01;13.35;;;6.82;;
73571;SDS011;61854;48.510;-2.770;2023-02-28T04:14:26;12.38;;;6.38;;
73571;SDS011;61854;48.510;-2.770;2023-02-28T04:16:52;9.75;;;6.20;;
73571;SDS011;61854;48.510;-2.770;2023-02-28T04:19:18;11.52;;;6.35;;
73571;SDS011;61854;48.510;-2.770;2023-02-28T04:21:45;9.88;;;6.57;;
73571;SDS011;61854;48.510;-2.770;2023-02-28T04:24:24;11.70;;;6.63;;
73571;SDS011;61854;48.510;-2.770;2023-02-28T04:26:52;14.35;;;7.25;;
73571;SDS011;61854;48.510;-2.770;2023-02-28T04:29:23;12.43;;;7.63;;
73571;SDS011;61854;48.510;-2.770;2023-02-28T04:31:50;15.02;;;6.70;;
73571;SDS011;61854;48.510;-2.770;2023-02-28T04:34:18;11.38;;;7.20;;
73571;SDS011;61854;48.510;-2.770;2023-02-28T04:36:44;11.50;;;7.05;;
73571;SDS011;61854;48.510;-2.770;2023-02-28T04:39:11;15.65;;;7.82;;
73571;SDS011;61854;48.510;-2.770;2023-02-28T04:41:37;9.35;;;7.35;;
73571;SDS011;61854;48.510;-2.770;2023-02-28T04:44:03;11.20;;;7.70;;
73571;SDS011;61854;48.510;-2.770;2023-02-28T04:46:28;11.77;;;7.63;;
73571;SDS011;61854;48.510;-2.770;2023-02-28T04:48:55;20.30;;;7.97;;
73571;SDS011;61854;48.510;-2.770;2023-02-28T04:51:21;12.30;;;8.23;;
73571;SDS011;61854;48.510;-2.770;2023-02-28T04:53:47;14.98;;;7.70;;
73571;SDS011;61854;48.510;-2.770;2023-02-28T04:56:14;11.77;;;7.70;;
73571;SDS011;61854;48.510;-2.770;2023-02-28T04:58:41;14.20;;;7.85;;
73571;SDS011;61854;48.510;-2.770;2023-02-28T05:01:21;11.65;;;7.75;;
73571;SDS011;61854;48.510;-2.770;2023-02-28T05:03:49;12.55;;;8.30;;
73571;SDS011;61854;48.510;-2.770;2023-02-28T05:06:16;14.30;;;8.30;;
73571;SDS011;61854;48.510;-2.770;2023-02-28T05:08:42;11.93;;;7.88;;
73571;SDS011;61854;48.510;-2.770;2023-02-28T05:11:16;13.80;;;7.32;;
73571;SDS011;61854;48.510;-2.770;2023-02-28T05:13:43;15.00;;;7.90;;
73571;SDS011;61854;48.510;-2.770;2023-02-28T05:16:09;14.15;;;7.65;;
73571;SDS011;61854;48.510;-2.770;2023-02-28T05:18:35;13.13;;;8.02;;
73571;SDS011;61854;48.510;-2.770;2023-02-28T05:21:01;12.85;;;8.00;;
73571;SDS011;61854;48.510;-2.770;2023-02-28T05:23:27;11.25;;;7.30;;
73571;SDS011;61854;48.510;-2.770;2023-02-28T05:25:53;15.05;;;8.02;;
73571;SDS011;61854;48.510;-2.770;2023-02-28T05:28:19;12.85;;;7.28;;
73571;SDS011;61854;48.510;-2.770;2023-02-28T05:30:45;10.70;;;7.13;;
73571;SDS011;61854;48.510;-2.770;2023-02-28T05:33:11;11.38;;;7.20;;
73571;SDS011;61854;48.510;-2.770;2023-02-28T05:35:40;11.52;;;7.47;;
73571;SDS011;61854;48.510;-2.770;2023-02-28T05:38:07;9.73;;;6.63;;
73571;SDS011;61854;48.510;-2.770;2023-02-28T05:40:33;15.55;;;7.07;;
73571;SDS011;61854;48.510;-2.770;2023-02-28T05:42:59;13.57;;;7.28;;
73571;SDS011;61854;48.510;-2.770;2023-02-28T05:45:28;9.07;;;7.18;;
73571;SDS011;61854;48.510;-2.770;2023-02-28T05:47:54;10.88;;;7.20;;
73571;SDS011;61854;48.510;-2.770;2023-02-28T05:50:20;9.88;;;7.40;;
73571;SDS011;61854;48.510;-2.770;2023-02-28T05:52:49;12.73;;;6.97;;
73571;SDS011;61854;48.510;-2.770;2023-02-28T05:55:15;12.93;;;6.95;;
73571;SDS011;61854;48.510;-2.770;2023-02-28T05:57:41;10.32;;;7.00;;
73571;SDS011;61854;48.510;-2.770;2023-02-28T06:00:07;11.90;;;7.10;;
73571;SDS011;61854;48.510;-2.770;2023-02-28T06:02:34;10.45;;;6.93;;
73571;SDS011;61854;48.510;-2.770;2023-02-28T06:04:59;10.55;;;7.13;;
73571;SDS011;61854;48.510;-2.770;2023-02-28T06:07:25;8.40;;;6.70;;
73571;SDS011;61854;48.510;-2.770;2023-02-28T06:09:51;10.30;;;7.38;;
73571;SDS011;61854;48.510;-2.770;2023-02-28T06:12:16;11.77;;;7.18;;
73571;SDS011;61854;48.510;-2.770;2023-02-28T06:14:42;11.98;;;7.50;;
73571;SDS011;61854;48.510;-2.770;2023-02-28T06:17:08;12.27;;;7.65;;
73571;SDS011;61854;48.510;-2.770;2023-02-28T06:19:36;11.50;;;7.80;;
73571;SDS011;61854;48.510;-2.770;2023-02-28T06:22:03;10.93;;;7.97;;
73571;SDS011;61854;48.510;-2.770;2023-02-28T06:24:29;14.55;;;8.45;;
73571;SDS011;61854;48.510;-2.770;2023-02-28T06:26:56;10.85;;;8.80;;
73571;SDS011;61854;48.510;-2.770;2023-02-28T06:29:24;13.02;;;9.00;;
73571;SDS011;61854;48.510;-2.770;2023-02-28T06:31:50;12.50;;;9.23;;
73571;SDS011;61854;48.510;-2.770;2023-02-28T06:34:16;13.98;;;9.23;;
73571;SDS011;61854;48.510;-2.770;2023-02-28T06:36:42;11.02;;;8.65;;
73571;SDS011;61854;48.510;-2.770;2023-02-28T06:39:07;11.70;;;9.32;;
73571;SDS011;61854;48.510;-2.770;2023-02-28T06:41:33;14.18;;;9.55;;
73571;SDS011;61854;48.510;-2.770;2023-02-28T06:44:03;18.27;;;10.80;;
73571;SDS011;61854;48.510;-2.770;2023-02-28T06:46:31;12.17;;;9.60;;
73571;SDS011;61854;48.510;-2.770;2023-02-28T06:48:57;11.60;;;9.55;;
73571;SDS011;61854;48.510;-2.770;2023-02-28T06:51:25;14.88;;;9.57;;
73571;SDS011;61854;48.510;-2.770;2023-02-28T06:53:52;14.13;;;9.48;;
73571;SDS011;61854;48.510;-2.770;2023-02-28T06:56:17;14.10;;;10.00;;
73571;SDS011;61854;48.510;-2.770;2023-02-28T06:58:47;12.35;;;9.43;;
73571;SDS011;61854;48.510;-2.770;2023-02-28T07:01:14;14.05;;;9.50;;
73571;SDS011;61854;48.510;-2.770;2023-02-28T07:03:40;12.02;;;9.30;;
73571;SDS011;61854;48.510;-2.770;2023-02-28T07:06:05;13.18;;;9.38;;
73571;SDS011;61854;48.510;-2.770;2023-02-28T07:08:32;14.63;;;9.05;;
73571;SDS011;61854;48.510;-2.770;2023-02-28T07:10:58;17.45;;;9.60;;
73571;SDS011;61854;48.510;-2.770;2023-02-28T07:13:24;12.60;;;9.18;;
73571;SDS011;61854;48.510;-2.770;2023-02-28T07:16:09;14.55;;;9.10;;
73571;SDS011;61854;48.510;-2.770;2023-02-28T07:18:36;13.43;;;9.73;;
73571;SDS011;61854;48.510;-2.770;2023-02-28T07:21:03;22.25;;;12.52;;
73571;SDS011;61854;48.510;-2.770;2023-02-28T07:23:30;11.70;;;9.15;;
73571;SDS011;61854;48.510;-2.770;2023-02-28T07:25:59;15.35;;;9.05;;
73571;SDS011;61854;48.510;-2.770;2023-02-28T07:28:25;12.02;;;9.27;;
73571;SDS011;61854;48.510;-2.770;2023-02-28T07:30:51;12.95;;;9.15;;
73571;SDS011;61854;48.510;-2.770;2023-02-28T07:33:17;12.10;;;9.13;;
73571;SDS011;61854;48.510;-2.770;2023-02-28T07:35:42;13.40;;;8.48;;
73571;SDS011;61854;48.510;-2.770;2023-02-28T07:38:08;11.27;;;9.07;;
73571;SDS011;61854;48.510;-2.770;2023-02-28T07:40:34;16.08;;;8.80;;
73571;SDS011;61854;48.510;-2.770;2023-02-28T07:43:03;17.75;;;11.68;;
73571;SDS011;61854;48.510;-2.770;2023-02-28T07:45:29;12.13;;;9.13;;
73571;SDS011;61854;48.510;-2.770;2023-02-28T07:47:56;12.73;;;9.07;;
73571;SDS011;61854;48.510;-2.770;2023-02-28T07:50:22;18.67;;;9.60;;
73571;SDS011;61854;48.510;-2.770;2023-02-28T07:52:48;11.90;;;8.95;;
73571;SDS011;61854;48.510;-2.770;2023-02-28T07:55:14;19.02;;;9.23;;
73571;SDS011;61854;48.510;-2.770;2023-02-28T07:57:41;15.32;;;9.23;;
73571;SDS011;61854;48.510;-2.770;2023-02-28T08:00:08;12.07;;;8.38;;
73571;SDS011;61854;48.510;-2.770;2023-02-28T08:02:35;14.02;;;9.85;;
73571;SDS011;61854;48.510;-2.770;2023-02-28T08:05:01;15.52;;;8.80;;
73571;SDS011;61854;48.510;-2.770;2023-02-28T08:07:27;12.77;;;8.63;;
73571;SDS011;61854;48.510;-2.770;2023-02-28T08:09:53;11.10;;;9.05;;
73571;SDS011;61854;48.510;-2.770;2023-02-28T08:12:19;13.05;;;8.45;;
73571;SDS011;61854;48.510;-2.770;2023-02-28T08:14:45;11.82;;;9.02;;
73571;SDS011;61854;48.510;-2.770;2023-02-28T08:17:11;12.52;;;8.73;;
73571;SDS011;61854;48.510;-2.770;2023-02-28T08:19:37;12.32;;;8.95;;
73571;SDS011;61854;48.510;-2.770;2023-02-28T08:22:03;12.65;;;8.63;;
73571;SDS011;61854;48.510;-2.770;2023-02-28T08:24:28;13.32;;;8.15;;
73571;SDS011;61854;48.510;-2.770;2023-02-28T08:26:55;14.73;;;9.30;;
73571;SDS011;61854;48.510;-2.770;2023-02-28T08:29:21;12.45;;;8.60;;
73571;SDS011;61854;48.510;-2.770;2023-02-28T08:31:47;11.02;;;8.18;;
73571;SDS011;61854;48.510;-2.770;2023-02-28T08:34:14;11.02;;;8.00;;
73571;SDS011;61854;48.510;-2.770;2023-02-28T08:36:41;11.65;;;8.20;;
73571;SDS011;61854;48.510;-2.770;2023-02-28T08:39:09;12.25;;;7.88;;
73571;SDS011;61854;48.510;-2.770;2023-02-28T08:41:35;12.57;;;7.70;;
73571;SDS011;61854;48.510;-2.770;2023-02-28T08:44:01;10.73;;;7.65;;
73571;SDS011;61854;48.510;-2.770;2023-02-28T08:46:27;11.82;;;7.82;;
73571;SDS011;61854;48.510;-2.770;2023-02-28T08:48:53;11.98;;;8.20;;
73571;SDS011;61854;48.510;-2.770;2023-02-28T08:51:20;16.87;;;8.20;;
73571;SDS011;61854;48.510;-2.770;2023-02-28T08:53:51;11.25;;;7.55;;
73571;SDS011;61854;48.510;-2.770;2023-02-28T08:56:22;12.15;;;7.63;;
73571;SDS011;61854;48.510;-2.770;2023-02-28T08:58:48;16.08;;;7.85;;
73571;SDS011;61854;48.510;-2.770;2023-02-28T09:01:16;14.55;;;7.80;;
73571;SDS011;61854;48.510;-2.770;2023-02-28T09:03:47;10.15;;;7.43;;
73571;SDS011;61854;48.510;-2.770;2023-02-28T09:06:14;12.15;;;7.25;;
73571;SDS011;61854;48.510;-2.770;2023-02-28T09:08:42;10.18;;;7.97;;
73571;SDS011;61854;48.510;-2.770;2023-02-28T09:11:08;9.25;;;6.63;;
73571;SDS011;61854;48.510;-2.770;2023-02-28T09:13:34;11.23;;;6.88;;
73571;SDS011;61854;48.510;-2.770;2023-02-28T09:16:00;14.10;;;7.40;;
73571;SDS011;61854;48.510;-2.770;2023-02-28T09:18:29;11.82;;;7.47;;
73571;SDS011;61854;48.510;-2.770;2023-02-28T09:20:55;9.57;;;6.35;;
73571;SDS011;61854;48.510;-2.770;2023-02-28T09:23:22;10.55;;;6.45;;
73571;SDS011;61854;48.510;-2.770;2023-02-28T09:25:50;10.80;;;6.72;;
73571;SDS011;61854;48.510;-2.770;2023-02-28T09:28:17;11.80;;;6.55;;
73571;SDS011;61854;48.510;-2.770;2023-02-28T09:30:44;11.73;;;7.00;;
73571;SDS011;61854;48.510;-2.770;2023-02-28T09:33:15;12.23;;;6.88;;
73571;SDS011;61854;48.510;-2.770;2023-02-28T09:35:41;14.98;;;6.00;;
73571;SDS011;61854;48.510;-2.770;2023-02-28T09:38:08;8.93;;;5.63;;
73571;SDS011;61854;48.510;-2.770;2023-02-28T09:40:36;13.10;;;6.10;;
73571;SDS011;61854;48.510;-2.770;2023-02-28T09:43:04;11.30;;;5.53;;
73571;SDS011;61854;48.510;-2.770;2023-02-28T09:45:32;11.98;;;5.85;;
73571;SDS011;61854;48.510;-2.770;2023-02-28T09:48:07;12.80;;;5.72;;
73571;SDS011;61854;48.510;-2.770;2023-02-28T09:50:41;12.05;;;6.10;;
73571;SDS011;61854;48.510;-2.770;2023-02-28T09:53:29;16.75;;;6.15;;
73571;SDS011;61854;48.510;-2.770;2023-02-28T09:56:00;8.45;;;6.45;;
73571;SDS011;61854;48.510;-2.770;2023-02-28T09:58:32;10.65;;;6.40;;
73571;SDS011;61854;48.510;-2.770;2023-02-28T10:01:10;9.82;;;6.43;;
73571;SDS011;61854;48.510;-2.770;2023-02-28T10:04:02;11.98;;;6.82;;
73571;SDS011;61854;48.510;-2.770;2023-02-28T10:06:49;17.42;;;6.47;;
73571;SDS011;61854;48.510;-2.770;2023-02-28T10:09:18;14.20;;;6.80;;
73571;SDS011;61854;48.510;-2.770;2023-02-28T10:11:53;13.90;;;6.68;;
73571;SDS011;61854;48.510;-2.770;2023-02-28T10:14:23;10.63;;;6.00;;
73571;SDS011;61854;48.510;-2.770;2023-02-28T10:16:52;10.10;;;6.07;;
73571;SDS011;61854;48.510;-2.770;2023-02-28T10:19:40;10.03;;;6.27;;
73571;SDS011;61854;48.510;-2.770;2023-02-28T10:24:53;10.63;;;5.85;;
73571;SDS011;61854;48.510;-2.770;2023-02-28T10:27:22;16.15;;;6.63;;
73571;SDS011;61854;48.510;-2.770;2023-02-28T10:29:50;9.07;;;6.57;;
73571;SDS011;61854;48.510;-2.770;2023-02-28T10:32:22;13.27;;;6.60;;
73571;SDS011;61854;48.510;-2.770;2023-02-28T10:37:43;11.57;;;6.25;;
73571;SDS011;61854;48.510;-2.770;2023-02-28T10:42:42;11.55;;;6.10;;
73571;SDS011;61854;48.510;-2.770;2023-02-28T10:45:21;11.85;;;6.05;;
73571;SDS011;61854;48.510;-2.770;2023-02-28T10:47:53;18.55;;;7.68;;
73571;SDS011;61854;48.510;-2.770;2023-02-28T10:55:57;10.82;;;7.22;;
73571;SDS011;61854;48.510;-2.770;2023-02-28T11:03:50;10.77;;;6.80;;
73571;SDS011;61854;48.510;-2.770;2023-02-28T11:11:13;9.43;;;6.37;;
73571;SDS011;61854;48.510;-2.770;2023-02-28T11:13:39;11.05;;;6.63;;
73571;SDS011;61854;48.510;-2.770;2023-02-28T11:16:10;12.35;;;6.82;;
73571;SDS011;61854;48.510;-2.770;2023-02-28T11:21:16;12.10;;;6.80;;
73571;SDS011;61854;48.510;-2.770;2023-02-28T11:23:54;11.65;;;7.05;;
73571;SDS011;61854;48.510;-2.770;2023-02-28T11:34:43;14.32;;;6.68;;
73571;SDS011;61854;48.510;-2.770;2023-02-28T11:37:12;11.97;;;6.93;;
73571;SDS011;61854;48.510;-2.770;2023-02-28T11:39:44;11.43;;;7.18;;
73571;SDS011;61854;48.510;-2.770;2023-02-28T11:42:20;12.40;;;6.60;;
73571;SDS011;61854;48.510;-2.770;2023-02-28T11:45:39;12.55;;;6.40;;
73571;SDS011;61854;48.510;-2.770;2023-02-28T11:48:12;13.90;;;6.55;;
73571;SDS011;61854;48.510;-2.770;2023-02-28T11:56:44;13.63;;;6.88;;
73571;SDS011;61854;48.510;-2.770;2023-02-28T12:04:40;14.15;;;7.88;;
73571;SDS011;61854;48.510;-2.770;2023-02-28T12:09:58;15.38;;;8.38;;
73571;SDS011;61854;48.510;-2.770;2023-02-28T12:12:46;17.10;;;8.05;;
73571;SDS011;61854;48.510;-2.770;2023-02-28T12:21:15;14.85;;;7.60;;
73571;SDS011;61854;48.510;-2.770;2023-02-28T12:29:12;13.00;;;7.85;;
73571;SDS011;61854;48.510;-2.770;2023-02-28T12:34:39;17.90;;;8.23;;
73571;SDS011;61854;48.510;-2.770;2023-02-28T12:37:21;13.88;;;7.38;;
73571;SDS011;61854;48.510;-2.770;2023-02-28T12:40:05;15.07;;;8.05;;
73571;SDS011;61854;48.510;-2.770;2023-02-28T12:42:42;10.52;;;7.05;;
73571;SDS011;61854;48.510;-2.770;2023-02-28T12:45:24;11.80;;;7.07;;
73571;SDS011;61854;48.510;-2.770;2023-02-28T12:47:58;11.27;;;6.63;;
73571;SDS011;61854;48.510;-2.770;2023-02-28T12:50:26;13.00;;;6.85;;
73571;SDS011;61854;48.510;-2.770;2023-02-28T12:56:42;11.65;;;7.18;;
73571;SDS011;61854;48.510;-2.770;2023-02-28T12:58:45;13.55;;;7.15;;
73571;SDS011;61854;48.510;-2.770;2023-02-28T13:09:32;13.75;;;6.35;;
73571;SDS011;61854;48.510;-2.770;2023-02-28T13:11:58;11.15;;;6.50;;
73571;SDS011;61854;48.510;-2.770;2023-02-28T13:14:37;12.20;;;5.82;;
73571;SDS011;61854;48.510;-2.770;2023-02-28T13:19:39;12.00;;;5.93;;
73571;SDS011;61854;48.510;-2.770;2023-02-28T13:24:57;9.85;;;5.38;;
73571;SDS011;61854;48.510;-2.770;2023-02-28T13:27:24;13.40;;;5.95;;
73571;SDS011;61854;48.510;-2.770;2023-02-28T13:33:23;9.70;;;5.88;;
73571;SDS011;61854;48.510;-2.770;2023-02-28T13:38:43;10.10;;;5.75;;
73571;SDS011;61854;48.510;-2.770;2023-02-28T13:47:16;14.57;;;6.95;;
73571;SDS011;61854;48.510;-2.770;2023-02-28T13:54:39;11.38;;;6.55;;
73571;SDS011;61854;48.510;-2.770;2023-02-28T14:05:39;11.73;;;6.00;;
73571;SDS011;61854;48.510;-2.770;2023-02-28T14:08:08;14.90;;;6.25;;
73571;SDS011;61854;48.510;-2.770;2023-02-28T14:10:45;15.15;;;6.55;;
73571;SDS011;61854;48.510;-2.770;2023-02-28T14:16:16;13.75;;;5.43;;
73571;SDS011;61854;48.510;-2.770;2023-02-28T14:19:02;8.23;;;4.80;;
73571;SDS011;61854;48.510;-2.770;2023-02-28T14:27:11;5.57;;;3.80;;
73571;SDS011;61854;48.510;-2.770;2023-02-28T14:37:41;7.82;;;4.57;;
73571;SDS011;61854;48.510;-2.770;2023-02-28T14:40:12;12.77;;;4.60;;
73571;SDS011;61854;48.510;-2.770;2023-02-28T14:42:45;9.30;;;4.13;;
73571;SDS011;61854;48.510;-2.770;2023-02-28T14:45:20;12.25;;;4.05;;
73571;SDS011;61854;48.510;-2.770;2023-02-28T14:47:46;13.27;;;2.80;;
73571;SDS011;61854;48.510;-2.770;2023-02-28T14:50:18;8.02;;;2.38;;
73571;SDS011;61854;48.510;-2.770;2023-02-28T14:52:53;11.25;;;2.08;;
73571;SDS011;61854;48.510;-2.770;2023-02-28T14:55:26;8.60;;;2.05;;
73571;SDS011;61854;48.510;-2.770;2023-02-28T14:57:55;10.38;;;1.80;;
73571;SDS011;61854;48.510;-2.770;2023-02-28T15:00:24;8.35;;;1.80;;
73571;SDS011;61854;48.510;-2.770;2023-02-28T15:02:52;6.18;;;1.60;;
73571;SDS011;61854;48.510;-2.770;2023-02-28T15:07:59;8.27;;;1.75;;
73571;SDS011;61854;48.510;-2.770;2023-02-28T15:10:31;6.18;;;1.50;;
73571;SDS011;61854;48.510;-2.770;2023-02-28T15:18:24;4.60;;;1.10;;
73571;SDS011;61854;48.510;-2.770;2023-02-28T15:21:17;7.32;;;1.70;;
73571;SDS011;61854;48.510;-2.770;2023-02-28T15:23:56;9.07;;;1.63;;
73571;SDS011;61854;48.510;-2.770;2023-02-28T15:26:41;4.82;;;1.13;;
73571;SDS011;61854;48.510;-2.770;2023-02-28T15:29:17;5.15;;;1.23;;
73571;SDS011;61854;48.510;-2.770;2023-02-28T15:31:50;7.20;;;1.10;;
73571;SDS011;61854;48.510;-2.770;2023-02-28T15:37:06;7.88;;;1.30;;
73571;SDS011;61854;48.510;-2.770;2023-02-28T15:39:53;9.65;;;0.90;;
73571;SDS011;61854;48.510;-2.770;2023-02-28T15:42:21;8.13;;;1.25;;
73571;SDS011;61854;48.510;-2.770;2023-02-28T15:44:48;8.13;;;1.27;;
73571;SDS011;61854;48.510;-2.770;2023-02-28T15:47:18;9.98;;;1.00;;
73571;SDS011;61854;48.510;-2.770;2023-02-28T15:49:50;11.40;;;1.20;;
73571;SDS011;61854;48.510;-2.770;2023-02-28T15:52:27;10.27;;;1.63;;
73571;SDS011;61854;48.510;-2.770;2023-02-28T15:54:56;8.25;;;0.93;;
73571;SDS011;61854;48.510;-2.770;2023-02-28T15:57:24;6.95;;;1.40;;
73571;SDS011;61854;48.510;-2.770;2023-02-28T15:59:54;8.27;;;1.60;;
73571;SDS011;61854;48.510;-2.770;2023-02-28T16:02:23;8.55;;;1.30;;
73571;SDS011;61854;48.510;-2.770;2023-02-28T16:07:42;13.25;;;1.40;;
73571;SDS011;61854;48.510;-2.770;2023-02-28T16:10:09;9.52;;;1.25;;
73571;SDS011;61854;48.510;-2.770;2023-02-28T16:17:47;10.13;;;2.00;;
73571;SDS011;61854;48.510;-2.770;2023-02-28T16:20:19;12.10;;;2.63;;
73571;SDS011;61854;48.510;-2.770;2023-02-28T16:22:55;10.10;;;1.75;;
73571;SDS011;61854;48.510;-2.770;2023-02-28T16:25:27;7.95;;;2.67;;
73571;SDS011;61854;48.510;-2.770;2023-02-28T16:27:59;7.15;;;2.10;;
73571;SDS011;61854;48.510;-2.770;2023-02-28T16:30:26;4.63;;;2.10;;
73571;SDS011;61854;48.510;-2.770;2023-02-28T16:32:54;9.00;;;2.00;;
73571;SDS011;61854;48.510;-2.770;2023-02-28T16:35:21;5.97;;;1.92;;
73571;SDS011;61854;48.510;-2.770;2023-02-28T16:37:47;6.78;;;1.92;;
73571;SDS011;61854;48.510;-2.770;2023-02-28T16:40:19;7.75;;;1.90;;
73571;SDS011;61854;48.510;-2.770;2023-02-28T16:42:50;8.55;;;1.67;;
73571;SDS011;61854;48.510;-2.770;2023-02-28T16:45:21;4.80;;;1.70;;
73571;SDS011;61854;48.510;-2.770;2023-02-28T16:47:51;11.52;;;2.08;;
73571;SDS011;61854;48.510;-2.770;2023-02-28T16:50:18;10.27;;;2.13;;
73571;SDS011;61854;48.510;-2.770;2023-02-28T16:52:49;8.00;;;2.28;;
73571;SDS011;61854;48.510;-2.770;2023-02-28T16:55:17;4.88;;;2.03;;
73571;SDS011;61854;48.510;-2.770;2023-02-28T16:57:43;8.75;;;2.38;;
73571;SDS011;61854;48.510;-2.770;2023-02-28T17:00:15;8.88;;;2.33;;
73571;SDS011;61854;48.510;-2.770;2023-02-28T17:02:40;9.30;;;2.50;;
73571;SDS011;61854;48.510;-2.770;2023-02-28T17:05:06;9.80;;;1.92;;
73571;SDS011;61854;48.510;-2.770;2023-02-28T17:07:33;8.23;;;2.50;;
73571;SDS011;61854;48.510;-2.770;2023-02-28T17:09:59;8.95;;;2.60;;
73571;SDS011;61854;48.510;-2.770;2023-02-28T17:12:33;5.70;;;2.00;;
73571;SDS011;61854;48.510;-2.770;2023-02-28T17:14:59;11.23;;;2.47;;
73571;SDS011;61854;48.510;-2.770;2023-02-28T17:17:24;8.60;;;2.75;;
73571;SDS011;61854;48.510;-2.770;2023-02-28T17:19:50;7.28;;;2.47;;
73571;SDS011;61854;48.510;-2.770;2023-02-28T17:22:16;12.23;;;3.58;;
73571;SDS011;61854;48.510;-2.770;2023-02-28T17:24:42;11.93;;;3.72;;
73571;SDS011;61854;48.510;-2.770;2023-02-28T17:27:09;8.57;;;3.42;;